createdAt,value
2019-04-30T00:08:23.132Z,0.00
2019-04-30T00:23:27.239Z,0.00
2019-04-30T00:38:29.579Z,0.00
2019-04-30T00:53:33.681Z,0.00
2019-04-30T01:08:35.792Z,0.00
2019-04-30T01:23:36.245Z,0.00
2019-04-30T01:38:40.072Z,0.00
2019-04-30T01:53:43.617Z,0.00
2019-04-30T02:08:43.974Z,0.00
2019-04-30T02:23:44.170Z,0.00
2019-04-30T02:38:44.341Z,0.00
2019-04-30T02:53:44.564Z,0.00
2019-04-30T03:08:45.284Z,0.00
2019-04-30T03:23:45.481Z,0.00
2019-04-30T03:38:45.787Z,11.25
2019-04-30T03:53:46.006Z,33.75
2019-04-30T04:08:46.202Z,73.12
2019-04-30T04:23:49.173Z,106.88
2019-04-30T04:38:50.719Z,157.50
2019-04-30T04:53:50.779Z,270.00
2019-04-30T05:08:50.913Z,247.50
2019-04-30T05:23:51.113Z,292.50
2019-04-30T05:38:51.330Z,326.25
2019-04-30T05:53:51.535Z,354.38
2019-04-30T06:08:51.743Z,416.25
2019-04-30T06:23:51.946Z,511.88
2019-04-30T06:38:52.137Z,697.50
2019-04-30T06:53:52.270Z,911.25
2019-04-30T07:08:55.968Z,1158.75
2019-04-30T07:23:59.564Z,1417.50
2019-04-30T07:39:00.108Z,1676.25
2019-04-30T07:54:00.075Z,1957.50
2019-04-30T08:09:01.052Z,2227.50
2019-04-30T08:24:01.499Z,2525.62
2019-04-30T08:39:02.207Z,2767.50
2019-04-30T08:54:02.410Z,2992.50
2019-04-30T09:09:03.865Z,3195.00
2019-04-30T09:24:04.052Z,3442.50
2019-04-30T09:39:04.286Z,3611.25
2019-04-30T09:54:05.254Z,3763.12
2019-04-30T10:09:05.704Z,3903.75
2019-04-30T10:24:14.806Z,3982.50
2019-04-30T10:39:11.149Z,4055.62
2019-04-30T10:54:23.168Z,4066.88
2019-04-30T11:09:16.467Z,3926.25
2019-04-30T11:24:16.718Z,4038.75
2019-04-30T11:39:18.589Z,3926.25
2019-04-30T11:54:19.654Z,3594.38
2019-04-30T12:09:20.385Z,3588.75
2019-04-30T12:24:20.512Z,3436.88
2019-04-30T12:39:20.646Z,2716.88
2019-04-30T12:54:20.731Z,2244.38
2019-04-30T13:09:21.442Z,883.12
2019-04-30T13:24:22.130Z,810.00
2019-04-30T13:39:22.164Z,1783.12
2019-04-30T13:54:22.555Z,1035.00
2019-04-30T14:09:22.686Z,1586.25
2019-04-30T14:24:22.783Z,1102.50
2019-04-30T14:39:23.518Z,1507.50
2019-04-30T14:54:23.697Z,1670.62
2019-04-30T15:09:23.848Z,1530.00
2019-04-30T15:24:24.232Z,1125.00
2019-04-30T15:39:24.421Z,601.88
2019-04-30T15:54:24.653Z,450.00
2019-04-30T16:09:24.778Z,326.25
2019-04-30T16:24:24.870Z,236.25
2019-04-30T16:39:25.182Z,208.12
2019-04-30T16:54:25.395Z,174.38
2019-04-30T17:09:25.590Z,146.25
2019-04-30T17:24:25.802Z,123.75
2019-04-30T17:39:26.020Z,101.25
2019-04-30T17:54:26.280Z,45.00
2019-04-30T18:09:26.479Z,39.38
2019-04-30T18:24:30.922Z,16.88
2019-04-30T18:39:31.109Z,0.00
2019-04-30T18:54:31.318Z,0.00
2019-04-30T19:09:31.473Z,0.00
2019-04-30T19:24:32.151Z,0.00
2019-04-30T19:39:32.585Z,0.00
2019-04-30T19:54:32.507Z,0.00
2019-04-30T20:09:32.693Z,0.00
2019-04-30T20:24:32.847Z,0.00
2019-04-30T20:39:32.940Z,0.00
2019-04-30T20:54:33.043Z,0.00
2019-04-30T21:09:33.282Z,0.00
2019-04-30T21:24:33.974Z,0.00
2019-04-30T21:39:34.209Z,0.00
2019-04-30T21:54:34.315Z,0.00
2019-04-30T22:09:34.489Z,0.00
2019-04-30T22:24:34.662Z,0.00
2019-04-30T22:39:34.826Z,0.00
2019-04-30T22:54:34.996Z,0.00
2019-04-30T23:09:35.250Z,0.00
2019-04-30T23:24:35.321Z,0.00
2019-04-30T23:39:35.566Z,0.00
2019-04-30T23:54:35.757Z,0.00
